Berlin Township, New Jersey
Current Conditions -  °F | °C
As of 1:54 PM on Monday 20 Oct 2014 (Local Time) from KVAY Reporting Station
Clear Clear  
Wind Chill: 60°   Ceiling: Unl
Heat Index: 60°   Visibility: 10mi
Dew Point: 38°   Wind: 5mph
Humidity: 44%   Direction: NA
Pressure: 30.03"   Gusts: 17mph
Location:  39.8119°N, 74.9426°W
Report Text: KVAY 201754Z AUTO VRB04G15KT 10SM CLR 16/03 A3003 RMK AO2 SLP167 T01560033 10161 20006 58034
Loading
Personal Weather Stations






























Interactive Weather Map
Tropical Storm Tracking
New forecast layout! Learn more

10-Day Weather Forecast

Advertisements
Track Severe Weather on mobile